KTYR/TYR METAR and TAF weather

Enter ICAO airport designator
Station Type Date Time Source
KTYR METAR 2020/11/25 22:53 UTC NOAA

KTYR 252253Z 25004KT 10SM CLR 16/03 A3005 RMK AO2 SLP171 T01610033


Station Type Date Time Source
KTYR Decoded METAR 2020/11/25 22:53 UTC NOAA

TYLER POUNDS FIELDS, TX, United States (KTYR) 32-21N 095-24W 165M
Nov 25, 2020 - 05:53 PM EST / 2020.11.25 2253 UTC
Wind: from the WSW (250 degrees) at 5 MPH (4 KT):0
Visibility: 10 mile(s):0
Sky conditions: clear
Temperature: 61.0 F (16.1 C)
Dew Point: 37.9 F (3.3 C)
Relative Humidity: 42%
Pressure (altimeter): 30.05 in. Hg (1017 hPa)
ob: KTYR 252253Z 25004KT 10SM CLR 16/03 A3005 RMK AO2 SLP171 T01610033
cycle: 23

Station Type Date Time Source
KTYR TAF 2020/11/25 18:27 UTC NOAA

TAF KTYR 251724Z 2518/2618 31010KT P6SM SKC
FM260000 VRB03KT P6SM SKC
FM260900 VRB03KT 4SM BR SKC
FM261500 13007KT P6SM SKC

Example: see airport list